createdAt,value
2022-12-29T00:00:28.191Z,78885.28
2022-12-29T00:02:56.968Z,78892.50
2022-12-29T00:05:26.385Z,78870.63
2022-12-29T00:07:55.021Z,78885.16
2022-12-29T00:10:23.766Z,78899.00
2022-12-29T00:13:10.799Z,78885.09
2022-12-29T00:15:39.910Z,78878.53
2022-12-29T00:18:10.072Z,78868.66
2022-12-29T00:20:58.220Z,78893.88
2022-12-29T00:23:45.169Z,78885.41
2022-12-29T00:26:35.367Z,78861.03
2022-12-29T00:29:23.416Z,78861.69
2022-12-29T00:32:10.751Z,78863.00
2022-12-29T00:34:57.924Z,78865.66
2022-12-29T00:37:47.567Z,78832.06
2022-12-29T00:40:34.897Z,78869.69
2022-12-29T00:43:22.936Z,78839.34
2022-12-29T00:45:52.934Z,78859.88
2022-12-29T00:48:42.935Z,78844.00
2022-12-29T00:51:12.639Z,78844.56
2022-12-29T00:53:41.253Z,78870.34
2022-12-29T00:56:10.166Z,78866.38
2022-12-29T00:58:38.805Z,78865.03
2022-12-29T01:01:10.354Z,78882.25
2022-12-29T01:03:40.834Z,78867.69
2022-12-29T01:06:12.098Z,78893.53
2022-12-29T01:08:40.931Z,78890.28
2022-12-29T01:11:12.544Z,78884.34
2022-12-29T01:13:43.027Z,78866.50
2022-12-29T01:16:13.309Z,78869.81
2022-12-29T01:18:43.857Z,78787.28
2022-12-29T01:21:12.705Z,78875.78
2022-12-29T01:23:41.399Z,78858.59
2022-12-29T01:26:15.055Z,78755.59
2022-12-29T01:28:44.930Z,78851.31
2022-12-29T01:31:15.969Z,78879.03
2022-12-29T01:33:45.975Z,78862.53
2022-12-29T01:36:17.184Z,78870.50
2022-12-29T01:38:46.987Z,78831.53
2022-12-29T01:41:18.310Z,78830.22
2022-12-29T01:43:57.109Z,78825.59
2022-12-29T01:46:45.874Z,78848.72
2022-12-29T01:49:26.464Z,78848.03
2022-12-29T01:52:09.899Z,78877.09
2022-12-29T01:54:55.945Z,78860.59
2022-12-29T01:57:32.340Z,78873.81
2022-12-29T02:00:07.201Z,78859.94
2022-12-29T02:02:42.813Z,78840.78
2022-12-29T02:05:22.621Z,78847.41
2022-12-29T02:07:53.845Z,78834.88
2022-12-29T02:10:30.098Z,78851.38
2022-12-29T02:12:59.158Z,78830.91
2022-12-29T02:16:10.472Z,78823.66
2022-12-29T02:19:07.894Z,78844.09
2022-12-29T02:22:07.715Z,78859.28
2022-12-29T02:25:02.264Z,78850.06
2022-12-29T02:27:52.429Z,78839.50
2022-12-29T02:31:01.366Z,78864.59
2022-12-29T02:33:56.231Z,78864.59
2022-12-29T02:36:46.512Z,78864.59
2022-12-29T02:39:57.717Z,78830.25
2022-12-29T02:42:36.066Z,78834.19
2022-12-29T02:45:22.666Z,78872.50
2022-12-29T02:48:30.204Z,78842.16
2022-12-29T02:51:06.156Z,78891.66
2022-12-29T02:53:56.914Z,78890.31
2022-12-29T02:56:25.861Z,78881.09
2022-12-29T02:58:54.595Z,78889.66
2022-12-29T03:02:16.678Z,78906.84
2022-12-29T03:05:39.763Z,78894.28
2022-12-29T03:08:33.330Z,78912.78
2022-12-29T03:11:07.118Z,78903.53
2022-12-29T03:14:12.308Z,78921.38
2022-12-29T03:16:49.974Z,78918.06
2022-12-29T03:19:38.144Z,78927.97
2022-12-29T03:22:32.502Z,78906.19
2022-12-29T03:25:12.318Z,78941.84
2022-12-29T03:27:52.842Z,78938.53
2022-12-29T03:30:22.997Z,78941.84
2022-12-29T04:30:43.550Z,78941.28
2022-12-29T04:33:22.825Z,78967.72
2022-12-29T04:35:54.221Z,78949.25
2022-12-29T04:38:25.149Z,78961.78
2022-12-29T04:40:54.973Z,78967.75
2022-12-29T04:43:25.615Z,78948.59
2022-12-29T04:46:12.880Z,78953.09
2022-12-29T04:49:06.695Z,78947.72
2022-12-29T04:52:02.558Z,78943.72
2022-12-29T04:54:31.836Z,78937.81
2022-12-29T04:57:16.024Z,78912.19
2022-12-29T04:59:50.600Z,78973.03
2022-12-29T05:02:20.795Z,78993.56
2022-12-29T05:04:52.755Z,78996.97
2022-12-29T05:07:22.130Z,79010.22
2022-12-29T06:56:19.595Z,78794.50
2022-12-29T06:58:49.232Z,78779.31
2022-12-29T07:01:18.532Z,78782.06
2022-12-29T07:03:48.133Z,78754.38
2022-12-29T07:06:16.780Z,78711.50
2022-12-29T07:08:45.631Z,78764.91
2022-12-29T07:11:14.435Z,78727.28
2022-12-29T07:13:44.310Z,78708.72
2022-12-29T07:16:13.136Z,78736.31
2022-12-29T07:18:42.901Z,78729.00
2022-12-29T07:21:12.262Z,78702.78
2022-12-29T07:23:41.120Z,78699.69
2022-12-29T07:26:14.435Z,78747.81
2022-12-29T07:28:43.723Z,78718.16
2022-12-29T07:31:18.715Z,78742.00
2022-12-29T07:33:49.499Z,78715.75
2022-12-29T07:36:19.030Z,78679.63
2022-12-29T07:38:47.724Z,78720.31
2022-12-29T07:41:16.874Z,78710.34
2022-12-29T07:43:50.939Z,78727.97
2022-12-29T07:46:56.175Z,78709.44
2022-12-29T07:49:21.497Z,78728.34
2022-12-29T07:51:50.296Z,78741.00
2022-12-29T07:54:21.918Z,78742.41
2022-12-29T07:56:51.004Z,78726.63
2022-12-29T07:59:21.325Z,78753.00
2022-12-29T08:01:50.482Z,78769.47
2022-12-29T08:04:19.285Z,78736.53
2022-12-29T08:06:48.350Z,78755.00
2022-12-29T08:09:22.326Z,78767.53
2022-12-29T08:11:51.704Z,78774.13
2022-12-29T08:14:21.067Z,78760.91
2022-12-29T08:16:50.162Z,78803.81
2022-12-29T08:19:20.979Z,78787.97
2022-12-29T08:21:50.287Z,78786.00
2022-12-29T08:24:18.927Z,78782.72
2022-12-29T08:26:47.695Z,78795.22
2022-12-29T08:29:16.650Z,78765.56
2022-12-29T08:31:45.645Z,78772.16
2022-12-29T08:34:14.234Z,78784.03
2022-12-29T08:36:43.304Z,78766.22
2022-12-29T08:39:12.731Z,78810.44
2022-12-29T08:41:41.925Z,78813.72
2022-12-29T08:44:10.953Z,78780.03
2022-12-29T08:46:39.921Z,78727.25
2022-12-29T08:49:08.689Z,78766.13
2022-12-29T08:51:37.874Z,78755.53
2022-12-29T08:54:06.701Z,78711.34
2022-12-29T08:56:36.133Z,78729.13
2022-12-29T08:59:04.982Z,78761.53
2022-12-29T09:01:38.402Z,78777.41
2022-12-29T09:04:16.720Z,78781.38
2022-12-29T09:06:47.263Z,78788.66
2022-12-29T09:09:16.525Z,78787.34
2022-12-29T09:11:45.791Z,78768.19
2022-12-29T09:14:15.268Z,78764.91
2022-12-29T09:17:02.260Z,78781.41
